createdAt,value
2023-01-19T00:00:27.589Z,7.37
2023-01-19T00:02:55.045Z,7.63
2023-01-19T00:05:21.854Z,7.60
2023-01-19T00:07:48.435Z,7.90
2023-01-19T00:10:15.037Z,8.07
2023-01-19T00:12:41.465Z,7.77
2023-01-19T00:15:08.540Z,8.30
2023-01-19T00:17:35.146Z,8.60
2023-01-19T00:20:01.742Z,8.20
2023-01-19T00:22:28.211Z,9.13
2023-01-19T00:24:54.746Z,9.13
2023-01-19T00:27:21.215Z,8.47
2023-01-19T00:29:47.651Z,9.03
2023-01-19T00:32:14.208Z,9.10
2023-01-19T00:34:42.584Z,7.47
2023-01-19T00:37:09.733Z,8.63
2023-01-19T00:39:36.182Z,7.70
2023-01-19T00:42:21.766Z,7.90
2023-01-19T00:44:48.189Z,7.60
2023-01-19T00:47:14.734Z,8.07
2023-01-19T00:49:41.153Z,7.43
2023-01-19T00:52:07.627Z,8.90
2023-01-19T00:54:34.048Z,8.80
2023-01-19T00:57:00.523Z,8.80
2023-01-19T00:59:26.980Z,8.13
2023-01-19T01:01:53.726Z,8.70
2023-01-19T01:04:20.269Z,8.70
2023-01-19T01:06:46.808Z,7.90
2023-01-19T01:09:13.378Z,8.43
2023-01-19T01:11:40.851Z,8.83
2023-01-19T01:14:08.231Z,8.50
2023-01-19T01:16:34.844Z,8.60
2023-01-19T01:19:01.355Z,8.40
2023-01-19T01:21:27.837Z,8.23
2023-01-19T01:23:54.596Z,9.10
2023-01-19T01:26:21.409Z,7.83
2023-01-19T01:28:47.941Z,8.07
2023-01-19T01:31:14.496Z,8.60
2023-01-19T01:33:41.856Z,8.30
2023-01-19T01:36:10.074Z,9.47
2023-01-19T01:38:36.643Z,8.67
2023-01-19T01:41:03.362Z,7.87
2023-01-19T01:43:48.542Z,7.50
2023-01-19T01:46:17.199Z,8.03
2023-01-19T01:48:50.710Z,8.20
2023-01-19T01:51:25.552Z,7.90
2023-01-19T01:54:15.071Z,8.57
2023-01-19T01:56:52.596Z,8.60
2023-01-19T01:59:26.865Z,9.20
2023-01-19T02:02:15.572Z,8.60
2023-01-19T02:04:53.833Z,8.70
2023-01-19T02:07:48.517Z,8.40
2023-01-19T02:10:33.867Z,8.33
2023-01-19T02:13:18.711Z,7.50
2023-01-19T02:15:45.867Z,8.00
2023-01-19T02:18:12.516Z,8.10
2023-01-19T02:20:42.726Z,8.23
2023-01-19T02:23:18.362Z,7.87
2023-01-19T02:25:45.213Z,7.80
2023-01-19T02:28:12.038Z,7.50
2023-01-19T02:30:41.422Z,8.90
2023-01-19T02:33:08.005Z,7.90
2023-01-19T02:35:37.988Z,8.03
2023-01-19T02:38:06.404Z,8.73
2023-01-19T02:40:33.138Z,8.57
2023-01-19T02:43:01.405Z,7.77
2023-01-19T02:45:28.604Z,7.33
2023-01-19T02:47:55.034Z,7.50
2023-01-19T02:50:45.980Z,8.67
2023-01-19T02:53:31.195Z,7.90
2023-01-19T02:56:01.137Z,8.13
2023-01-19T02:59:00.199Z,7.77
2023-01-19T03:01:47.518Z,8.20
2023-01-19T03:04:35.321Z,8.07
2023-01-19T03:07:22.203Z,8.57
2023-01-19T03:10:07.831Z,7.50
2023-01-19T03:12:59.488Z,8.10
2023-01-19T03:15:43.719Z,7.80
2023-01-19T03:18:12.517Z,8.37
2023-01-19T03:20:40.294Z,7.90
2023-01-19T03:23:11.055Z,7.73
2023-01-19T03:25:42.522Z,8.03
2023-01-19T03:28:09.671Z,7.50
2023-01-19T03:30:42.345Z,6.90
2023-01-19T03:33:14.282Z,7.40
2023-01-19T03:35:45.199Z,7.40
2023-01-19T03:38:17.197Z,7.10
2023-01-19T03:40:45.515Z,7.60
2023-01-19T03:43:16.499Z,7.30
2023-01-19T03:45:43.903Z,7.30
2023-01-19T03:48:10.668Z,7.53
2023-01-19T03:50:37.203Z,7.90
2023-01-19T03:53:12.881Z,7.30
2023-01-19T03:55:42.052Z,6.73
2023-01-19T03:58:08.552Z,7.80
2023-01-19T04:00:36.536Z,6.67
2023-01-19T04:03:07.159Z,7.57
2023-01-19T04:05:33.717Z,7.07
2023-01-19T04:08:00.705Z,8.80
2023-01-19T04:10:27.216Z,7.20
2023-01-19T04:12:59.311Z,7.43
2023-01-19T04:15:26.667Z,7.30
2023-01-19T04:17:53.134Z,8.00
2023-01-19T04:20:20.071Z,8.10
2023-01-19T04:22:46.489Z,8.13
2023-01-19T04:25:12.932Z,8.93
2023-01-19T04:27:39.453Z,10.20
2023-01-19T04:30:06.660Z,9.50
2023-01-19T04:32:33.177Z,8.40
2023-01-19T04:34:59.963Z,7.87
2023-01-19T04:37:26.487Z,9.27
2023-01-19T04:39:52.996Z,8.90
2023-01-19T04:42:19.719Z,7.90
2023-01-19T04:44:46.184Z,9.03
2023-01-19T04:47:12.608Z,8.23
2023-01-19T04:49:39.075Z,8.60
2023-01-19T04:52:06.405Z,8.97
2023-01-19T04:54:33.163Z,9.30
2023-01-19T04:56:59.775Z,9.70
2023-01-19T04:59:26.256Z,8.80
2023-01-19T05:01:52.975Z,9.83
2023-01-19T05:04:19.456Z,9.27
2023-01-19T05:06:45.878Z,10.37
2023-01-19T05:09:14.194Z,9.30
2023-01-19T05:11:41.076Z,10.37
2023-01-19T05:14:07.559Z,9.70
2023-01-19T05:16:34.611Z,10.30
2023-01-19T05:19:01.354Z,10.53
2023-01-19T05:21:28.362Z,10.20
2023-01-19T05:23:54.819Z,10.53
2023-01-19T05:26:21.293Z,10.20
2023-01-19T05:28:47.775Z,11.47
2023-01-19T05:31:14.321Z,11.63
2023-01-19T05:33:41.156Z,10.47
2023-01-19T05:36:07.789Z,11.30
2023-01-19T05:38:35.660Z,11.60
2023-01-19T05:41:02.744Z,10.23
2023-01-19T05:43:29.327Z,10.00
2023-01-19T05:45:55.829Z,10.10
2023-01-19T05:48:22.384Z,11.63
2023-01-19T05:50:49.565Z,10.60
2023-01-19T05:53:17.080Z,11.00
2023-01-19T05:55:43.610Z,10.57
2023-01-19T05:58:10.121Z,11.13
2023-01-19T06:00:36.547Z,11.93
2023-01-19T06:03:04.189Z,9.10
2023-01-19T06:05:30.848Z,11.00
2023-01-19T06:07:57.271Z,11.40
2023-01-19T06:10:23.998Z,11.00
2023-01-19T06:12:52.421Z,10.17
2023-01-19T06:15:19.175Z,10.40
2023-01-19T06:17:45.623Z,9.10
2023-01-19T06:20:14.036Z,10.57
2023-01-19T06:22:40.559Z,9.30
2023-01-19T06:25:07.315Z,9.00
2023-01-19T06:27:33.770Z,9.03
2023-01-19T06:30:00.377Z,9.50
2023-01-19T06:32:27.003Z,8.67
2023-01-19T06:34:54.177Z,8.80
2023-01-19T06:37:20.974Z,9.40
2023-01-19T06:39:47.460Z,7.83
2023-01-19T06:42:14.301Z,7.80
2023-01-19T06:44:47.326Z,8.40
2023-01-19T06:47:16.417Z,8.53
2023-01-19T06:49:43.300Z,7.50
2023-01-19T06:52:11.405Z,7.50
2023-01-19T06:54:38.181Z,7.07
2023-01-19T06:57:04.730Z,8.30
2023-01-19T06:59:31.773Z,7.43
2023-01-19T07:01:59.069Z,7.90
2023-01-19T07:04:27.008Z,7.60
2023-01-19T07:06:53.669Z,7.30
2023-01-19T07:09:20.425Z,7.73
2023-01-19T07:11:48.166Z,7.73
2023-01-19T07:14:15.024Z,7.63
2023-01-19T07:16:41.577Z,7.90
2023-01-19T07:19:10.648Z,8.07
2023-01-19T07:21:37.383Z,8.80
2023-01-19T07:24:03.907Z,8.60
2023-01-19T07:26:30.878Z,8.70
2023-01-19T07:28:57.615Z,9.63
2023-01-19T07:31:24.593Z,9.13
2023-01-19T07:33:51.220Z,9.80
2023-01-19T07:36:17.718Z,10.37
2023-01-19T07:38:44.175Z,10.23
2023-01-19T07:41:10.839Z,10.20
2023-01-19T07:43:37.568Z,10.13
2023-01-19T07:46:06.251Z,10.70
2023-01-19T07:48:32.779Z,10.40
2023-01-19T07:51:13.049Z,10.13
2023-01-19T07:53:40.110Z,9.93
2023-01-19T07:56:07.746Z,11.30
2023-01-19T07:58:34.551Z,10.40
2023-01-19T08:01:01.124Z,10.30
2023-01-19T08:03:27.725Z,10.63
2023-01-19T08:05:54.586Z,11.27
2023-01-19T08:08:21.043Z,11.57
2023-01-19T08:10:50.936Z,10.77
2023-01-19T08:13:18.534Z,12.30
2023-01-19T08:15:45.240Z,11.00
2023-01-19T08:18:11.801Z,11.47
2023-01-19T08:20:38.388Z,12.30
2023-01-19T08:23:05.482Z,12.10
2023-01-19T08:25:34.397Z,11.53
2023-01-19T08:28:01.846Z,11.47
2023-01-19T08:30:28.405Z,14.10
2023-01-19T08:32:58.375Z,12.43
2023-01-19T08:35:25.109Z,12.97
2023-01-19T08:37:51.547Z,11.40
2023-01-19T08:40:18.404Z,12.60
2023-01-19T08:42:45.498Z,13.23
2023-01-19T08:45:12.311Z,12.33
2023-01-19T08:47:38.798Z,12.53
2023-01-19T08:50:05.574Z,12.77
2023-01-19T08:52:32.064Z,11.83
2023-01-19T08:54:58.495Z,12.67
2023-01-19T08:57:24.899Z,13.03
2023-01-19T08:59:51.364Z,13.10
2023-01-19T09:02:17.855Z,12.37
2023-01-19T09:04:44.323Z,13.73
2023-01-19T09:07:10.824Z,13.93
2023-01-19T09:09:39.459Z,15.27
2023-01-19T09:12:05.955Z,13.33
2023-01-19T09:14:32.545Z,14.93
2023-01-19T09:16:59.274Z,15.53
2023-01-19T09:19:26.148Z,14.40
2023-01-19T09:21:54.605Z,15.17
2023-01-19T09:24:21.186Z,15.60
2023-01-19T09:26:47.937Z,14.73
2023-01-19T09:29:14.418Z,15.83
2023-01-19T09:31:41.115Z,15.73
2023-01-19T09:34:07.695Z,16.50
2023-01-19T09:36:36.537Z,16.77
2023-01-19T09:39:03.743Z,17.60
2023-01-19T09:41:33.990Z,17.43
2023-01-19T09:44:01.074Z,17.10
2023-01-19T09:46:38.893Z,16.80
2023-01-19T09:49:11.677Z,17.10
2023-01-19T09:51:41.737Z,18.20
2023-01-19T09:54:31.181Z,18.63
2023-01-19T09:56:57.647Z,18.27
2023-01-19T09:59:32.296Z,17.40
2023-01-19T10:02:23.514Z,18.37
2023-01-19T10:05:27.459Z,18.40
2023-01-19T10:08:10.091Z,19.80
2023-01-19T10:10:37.721Z,19.93
2023-01-19T10:13:22.472Z,20.83
2023-01-19T10:15:55.100Z,21.77
2023-01-19T10:18:43.162Z,20.47
2023-01-19T10:21:17.610Z,20.97
2023-01-19T10:24:15.083Z,22.47
2023-01-19T10:26:45.691Z,21.17
2023-01-19T10:29:26.470Z,21.30
2023-01-19T10:32:04.875Z,22.30
2023-01-19T10:34:31.341Z,21.70
2023-01-19T10:37:15.698Z,21.70
2023-01-19T10:39:43.166Z,21.90
2023-01-19T10:42:15.314Z,22.77
2023-01-19T10:44:42.182Z,20.87
2023-01-19T10:47:17.079Z,21.13
2023-01-19T10:49:44.603Z,22.63
2023-01-19T10:52:28.821Z,23.97
2023-01-19T10:54:55.999Z,22.83
2023-01-19T10:57:36.949Z,21.00
2023-01-19T11:00:06.489Z,23.10
2023-01-19T11:02:33.465Z,19.80
2023-01-19T11:05:23.376Z,22.50
2023-01-19T11:07:49.861Z,20.60
2023-01-19T11:10:16.299Z,21.67
2023-01-19T11:12:45.882Z,20.97
2023-01-19T11:15:25.625Z,21.30
2023-01-19T11:17:53.510Z,21.37
2023-01-19T11:20:25.945Z,21.77
2023-01-19T11:23:16.545Z,22.50
2023-01-19T11:25:47.849Z,20.53
2023-01-19T11:28:20.633Z,21.90
2023-01-19T11:31:01.953Z,20.47
2023-01-19T11:33:42.494Z,20.73
2023-01-19T11:36:33.667Z,18.67
2023-01-19T11:39:20.493Z,19.30
2023-01-19T11:41:52.089Z,18.50
2023-01-19T11:44:23.469Z,20.23
2023-01-19T11:47:02.214Z,21.37
2023-01-19T11:49:52.731Z,20.40
2023-01-19T11:52:53.339Z,20.57
2023-01-19T11:55:33.887Z,19.67
2023-01-19T11:58:00.735Z,20.83
2023-01-19T12:01:01.681Z,19.67
2023-01-19T12:03:37.143Z,20.07
2023-01-19T12:06:14.040Z,20.77
2023-01-19T12:08:45.243Z,20.23
2023-01-19T12:11:17.967Z,19.33
2023-01-19T12:13:46.454Z,19.53
2023-01-19T12:16:26.329Z,20.23
2023-01-19T12:19:03.428Z,20.30
2023-01-19T12:21:29.923Z,18.37
2023-01-19T12:24:08.360Z,20.53
2023-01-19T12:26:44.629Z,21.70
2023-01-19T12:29:21.807Z,20.60
2023-01-19T12:32:13.070Z,20.43
2023-01-19T12:34:52.069Z,20.10
2023-01-19T12:37:28.797Z,18.13
2023-01-19T12:39:58.046Z,19.50
2023-01-19T12:42:26.406Z,22.57
2023-01-19T12:45:29.306Z,19.77
2023-01-19T12:47:56.314Z,21.07
2023-01-19T12:50:25.814Z,19.10
2023-01-19T12:53:02.676Z,17.70
2023-01-19T12:55:36.422Z,18.27
2023-01-19T12:58:23.384Z,18.40
2023-01-19T13:01:10.786Z,16.03
2023-01-19T13:03:59.006Z,17.10
2023-01-19T13:06:47.146Z,18.27
2023-01-19T13:09:37.460Z,16.37
2023-01-19T13:12:21.470Z,18.47
2023-01-19T13:14:49.733Z,18.87
2023-01-19T13:17:34.295Z,17.03
2023-01-19T13:20:22.691Z,18.00
2023-01-19T13:22:51.147Z,16.17
2023-01-19T13:25:31.310Z,16.87
2023-01-19T13:27:58.185Z,18.60
2023-01-19T13:30:28.793Z,17.17
2023-01-19T13:33:09.125Z,17.57
2023-01-19T13:35:35.920Z,18.00
2023-01-19T13:38:03.630Z,17.53
2023-01-19T13:40:38.611Z,18.13
2023-01-19T13:43:14.659Z,18.50
2023-01-19T13:45:41.832Z,18.30
2023-01-19T13:48:14.631Z,17.40
2023-01-19T13:50:42.665Z,17.37
2023-01-19T13:53:20.626Z,18.10
2023-01-19T13:55:48.160Z,18.40
2023-01-19T13:58:22.429Z,18.03
2023-01-19T14:00:49.069Z,17.47
2023-01-19T14:03:15.643Z,17.30
2023-01-19T14:05:43.388Z,17.27
2023-01-19T14:08:18.023Z,16.73
2023-01-19T14:10:53.766Z,16.57
2023-01-19T14:13:32.240Z,15.90
2023-01-19T14:16:07.978Z,17.33
2023-01-19T14:18:36.084Z,16.00
2023-01-19T14:21:08.329Z,17.17
2023-01-19T14:23:55.853Z,16.03
2023-01-19T14:26:37.776Z,16.77
2023-01-19T14:29:10.311Z,17.17
2023-01-19T14:31:46.314Z,17.57
2023-01-19T14:34:31.250Z,15.60
2023-01-19T14:36:58.331Z,15.27
2023-01-19T14:39:27.745Z,15.90
2023-01-19T14:41:58.080Z,15.17
2023-01-19T14:44:35.067Z,16.03
2023-01-19T14:47:02.200Z,16.63
2023-01-19T14:49:35.968Z,15.50
2023-01-19T14:52:31.487Z,14.10
2023-01-19T14:54:59.488Z,14.83
2023-01-19T14:57:26.016Z,15.57
2023-01-19T14:59:52.856Z,15.20
2023-01-19T15:02:22.191Z,15.83
2023-01-19T15:04:48.628Z,14.97
2023-01-19T15:07:19.389Z,15.17
2023-01-19T15:09:47.351Z,14.77
2023-01-19T15:12:17.481Z,15.00
2023-01-19T15:14:45.072Z,13.17
2023-01-19T15:17:17.956Z,15.30
2023-01-19T15:19:44.403Z,14.40
2023-01-19T15:22:12.606Z,15.17
2023-01-19T15:24:40.879Z,14.40
2023-01-19T15:27:12.021Z,14.60
2023-01-19T15:29:40.289Z,13.50
2023-01-19T15:32:12.352Z,14.17
2023-01-19T15:34:38.825Z,14.67
2023-01-19T15:37:05.350Z,14.70
2023-01-19T15:39:32.325Z,13.70
2023-01-19T15:41:59.703Z,15.67
2023-01-19T15:44:26.347Z,15.17
2023-01-19T15:46:54.669Z,15.00
2023-01-19T15:49:21.315Z,15.87
2023-01-19T15:51:47.717Z,16.77
2023-01-19T15:54:15.189Z,16.00
2023-01-19T15:56:42.592Z,15.00
2023-01-19T15:59:09.164Z,14.40
2023-01-19T16:01:36.112Z,16.80
2023-01-19T16:04:05.111Z,18.20
2023-01-19T16:06:32.685Z,17.63
2023-01-19T16:09:01.134Z,16.20
2023-01-19T16:11:29.888Z,16.27
2023-01-19T16:13:56.471Z,16.30
2023-01-19T16:16:24.525Z,16.17
2023-01-19T16:18:51.709Z,16.13
2023-01-19T16:21:18.754Z,14.17
2023-01-19T16:23:45.188Z,15.10
2023-01-19T16:26:30.106Z,14.77
2023-01-19T16:28:58.727Z,15.53
2023-01-19T16:31:25.614Z,15.63
2023-01-19T16:33:52.127Z,15.10
2023-01-19T16:36:19.595Z,14.00
2023-01-19T16:38:46.055Z,14.00
2023-01-19T16:41:12.658Z,15.57
2023-01-19T16:43:39.079Z,14.93
2023-01-19T16:46:05.701Z,15.03
2023-01-19T16:48:32.349Z,14.50
2023-01-19T16:51:04.716Z,14.33
2023-01-19T16:53:34.367Z,14.93
2023-01-19T16:56:27.304Z,14.37
2023-01-19T16:58:58.325Z,11.73
2023-01-19T17:01:28.523Z,14.20
2023-01-19T17:03:55.748Z,14.80
2023-01-19T17:06:23.677Z,14.17
2023-01-19T17:08:50.856Z,13.27
2023-01-19T17:11:28.536Z,13.50
2023-01-19T17:13:56.470Z,13.10
2023-01-19T17:16:24.325Z,13.23
2023-01-19T17:18:51.217Z,14.37
2023-01-19T17:21:19.273Z,14.03
2023-01-19T17:23:48.105Z,14.50
2023-01-19T17:26:15.329Z,15.07
2023-01-19T17:28:41.872Z,14.10
2023-01-19T17:31:30.065Z,15.70
2023-01-19T17:33:56.700Z,13.83
2023-01-19T17:36:25.370Z,14.47
2023-01-19T17:38:54.103Z,14.13
2023-01-19T17:41:24.072Z,14.50
2023-01-19T17:43:51.403Z,13.50
2023-01-19T17:46:19.479Z,13.60
2023-01-19T17:49:01.669Z,19.13
2023-01-19T17:51:28.987Z,14.10
2023-01-19T17:53:55.641Z,14.33
2023-01-19T17:56:27.531Z,14.20
2023-01-19T17:58:54.294Z,15.10
2023-01-19T18:01:23.991Z,15.30
2023-01-19T18:03:50.554Z,15.60
2023-01-19T18:06:17.506Z,16.37
2023-01-19T18:08:46.208Z,14.97
2023-01-19T18:11:13.993Z,15.13
2023-01-19T18:13:43.315Z,16.20
2023-01-19T18:16:15.520Z,15.70
2023-01-19T18:18:42.321Z,14.73
2023-01-19T18:21:11.345Z,14.97
2023-01-19T18:23:38.148Z,16.17
2023-01-19T18:26:09.707Z,15.33
2023-01-19T18:28:36.524Z,15.33
2023-01-19T18:31:07.016Z,15.03
2023-01-19T18:33:34.055Z,15.97
2023-01-19T18:36:00.880Z,15.40
2023-01-19T18:38:27.535Z,14.00
2023-01-19T18:41:05.172Z,15.67
2023-01-19T18:43:32.003Z,13.80
2023-01-19T18:45:58.506Z,14.60
2023-01-19T18:48:24.973Z,14.30
2023-01-19T18:50:51.535Z,14.53
2023-01-19T18:53:18.103Z,14.37
2023-01-19T18:55:52.901Z,15.20
2023-01-19T18:58:19.989Z,15.20
2023-01-19T19:00:47.206Z,16.10
2023-01-19T19:03:13.843Z,16.13
2023-01-19T19:05:40.589Z,15.33
2023-01-19T19:08:07.778Z,15.50
2023-01-19T19:10:34.711Z,15.70
2023-01-19T19:13:01.647Z,15.87
2023-01-19T19:15:28.222Z,15.07
2023-01-19T19:17:54.715Z,14.27
2023-01-19T19:20:22.713Z,15.83
2023-01-19T19:22:49.890Z,14.57
2023-01-19T19:25:16.462Z,16.17
2023-01-19T19:27:45.321Z,16.70
2023-01-19T19:30:13.471Z,14.83
2023-01-19T19:32:40.269Z,15.23
2023-01-19T19:35:06.940Z,17.20
2023-01-19T19:37:34.147Z,13.80
2023-01-19T19:40:00.549Z,14.80
2023-01-19T19:42:29.978Z,15.20
2023-01-19T19:44:56.571Z,14.57
2023-01-19T19:47:24.475Z,13.83
2023-01-19T19:49:50.942Z,15.70
2023-01-19T19:52:17.368Z,19.83
2023-01-19T19:54:45.066Z,19.57
2023-01-19T19:57:11.603Z,23.50
2023-01-19T19:59:38.139Z,21.27
2023-01-19T20:02:04.982Z,20.77
2023-01-19T20:04:31.505Z,22.37
2023-01-19T20:06:59.165Z,21.47
2023-01-19T20:09:25.794Z,21.10
2023-01-19T20:11:52.899Z,21.20
2023-01-19T20:14:19.782Z,19.43
2023-01-19T20:16:46.260Z,20.23
2023-01-19T20:19:12.762Z,19.13
2023-01-19T20:21:44.519Z,23.40
2023-01-19T20:24:15.587Z,21.07
2023-01-19T20:26:44.643Z,19.90
2023-01-19T20:29:11.623Z,20.10
2023-01-19T20:31:42.447Z,20.07
2023-01-19T20:34:11.001Z,17.20
2023-01-19T20:36:37.973Z,18.37
2023-01-19T20:39:09.437Z,19.47
2023-01-19T20:41:43.503Z,16.20
2023-01-19T20:44:15.987Z,16.90
2023-01-19T20:46:42.560Z,15.10
2023-01-19T20:49:09.041Z,14.37
2023-01-19T20:51:37.285Z,13.93
2023-01-19T20:54:04.017Z,13.70
2023-01-19T20:56:30.456Z,14.10
2023-01-19T20:58:58.642Z,13.83
2023-01-19T21:01:25.393Z,13.03
2023-01-19T21:03:52.313Z,12.63
2023-01-19T21:06:20.161Z,11.70
2023-01-19T21:09:01.870Z,12.73
2023-01-19T21:11:28.565Z,12.70
2023-01-19T21:13:57.932Z,10.30
2023-01-19T21:16:30.009Z,11.97
2023-01-19T21:18:56.525Z,14.07
2023-01-19T21:21:30.841Z,17.80
2023-01-19T21:24:00.083Z,15.83
2023-01-19T21:26:29.661Z,15.20
2023-01-19T21:29:00.165Z,14.97
2023-01-19T21:31:27.957Z,13.83
2023-01-19T21:33:55.682Z,13.50
2023-01-19T21:36:23.199Z,14.90
2023-01-19T21:38:52.624Z,12.93
2023-01-19T21:41:19.350Z,15.40
2023-01-19T21:43:46.169Z,16.47
2023-01-19T21:46:18.512Z,14.13
2023-01-19T21:48:45.893Z,12.87
2023-01-19T21:51:13.702Z,13.83
2023-01-19T21:53:40.662Z,13.33
2023-01-19T21:56:11.346Z,12.73
2023-01-19T21:58:38.410Z,13.40
2023-01-19T22:01:10.750Z,13.00
2023-01-19T22:03:37.353Z,13.90
2023-01-19T22:06:05.639Z,13.27
2023-01-19T22:08:32.246Z,12.87
2023-01-19T22:11:11.971Z,14.00
2023-01-19T22:13:39.455Z,11.90
2023-01-19T22:16:08.880Z,13.20
2023-01-19T22:18:36.207Z,11.77
2023-01-19T22:21:15.911Z,12.20
2023-01-19T22:23:42.711Z,13.60
2023-01-19T22:26:10.808Z,12.77
2023-01-19T22:28:37.455Z,12.07
2023-01-19T22:31:16.188Z,13.63
2023-01-19T22:33:43.213Z,14.00
2023-01-19T22:36:31.343Z,13.60
2023-01-19T22:39:00.209Z,15.23
2023-01-19T22:41:47.113Z,13.40
2023-01-19T22:44:16.666Z,13.53
2023-01-19T22:46:44.032Z,13.23
2023-01-19T22:49:13.452Z,13.77
2023-01-19T22:51:40.010Z,13.27
2023-01-19T22:54:07.287Z,13.33
2023-01-19T22:56:35.814Z,13.23
2023-01-19T22:59:03.173Z,13.17
2023-01-19T23:01:36.068Z,12.83
2023-01-19T23:04:04.276Z,13.07
2023-01-19T23:06:33.036Z,12.63
2023-01-19T23:09:02.152Z,13.90
2023-01-19T23:11:35.730Z,13.60
2023-01-19T23:14:02.567Z,13.67
2023-01-19T23:16:29.024Z,14.20
2023-01-19T23:18:57.949Z,15.67
2023-01-19T23:21:27.173Z,13.70
2023-01-19T23:23:55.515Z,14.00
2023-01-19T23:26:23.181Z,15.77
2023-01-19T23:29:00.315Z,13.80
2023-01-19T23:31:26.830Z,14.20
2023-01-19T23:33:58.692Z,14.47
2023-01-19T23:36:28.130Z,13.80
2023-01-19T23:39:04.859Z,15.10
2023-01-19T23:41:34.423Z,14.60
2023-01-19T23:44:01.208Z,14.43
2023-01-19T23:46:28.422Z,14.50
2023-01-19T23:48:55.250Z,14.97
2023-01-19T23:51:27.717Z,14.37
2023-01-19T23:53:54.751Z,14.70
2023-01-19T23:56:22.429Z,14.50
2023-01-19T23:58:54.999Z,13.60
